Time;durP1;ratioP1;P1;durP2;ratioP2;P2;SDS_P1;SDS_P2;PMS_P1;PMS_P2;Temp;Humidity;BMP_temperature;BMP_pressure;BME280_temperature;BME280_humidity;BME280_pressure;Samples;Min_cycle;Max_cycle;Signal;HPM_P1;HPM_P2
2022/01/21 00:00:27;;;;;;;19.15;3.72;;;1.00;99.90;;;;;;5038490;28;20124;-77
2022/01/21 00:02:53;;;;;;;21.20;2.45;;;1.10;99.90;;;;;;5044643;28;20521;-77
2022/01/21 00:05:21;;;;;;;19.73;3.55;;;1.00;99.90;;;;;;5017398;28;20053;-78
2022/01/21 00:07:47;;;;;;;21.25;2.90;;;1.00;99.90;;;;;;5036629;28;20049;-77
2022/01/21 00:10:13;;;;;;;21.67;2.50;;;1.00;99.90;;;;;;5048704;28;20390;-77
2022/01/21 00:12:39;;;;;;;14.90;2.25;;;1.00;99.90;;;;;;5044286;28;20057;-79
2022/01/21 00:15:06;;;;;;;13.70;2.60;;;1.00;99.90;;;;;;5044550;28;20080;-77
2022/01/21 00:17:32;;;;;;;23.75;3.08;;;1.10;99.90;;;;;;5047416;28;20103;-77
2022/01/21 00:30:55;;;;;;;17.52;2.55;;;1.40;99.90;;;;;;5042063;28;20056;-77
2022/01/21 00:33:20;;;;;;;18.10;2.45;;;1.50;99.90;;;;;;5033368;28;20049;-77
2022/01/21 00:35:46;;;;;;;17.90;3.90;;;1.60;99.90;;;;;;5032410;28;20107;-78
2022/01/21 00:38:13;;;;;;;10.82;2.10;;;1.60;99.90;;;;;;5074199;28;20049;-77
2022/01/21 00:40:39;;;;;;;19.25;2.22;;;1.70;99.90;;;;;;5022266;28;20044;-77
2022/01/21 00:45:31;;;;;;;18.00;1.83;;;1.90;99.90;;;;;;5049822;28;20456;-78
2022/01/21 00:47:57;;;;;;;25.52;2.97;;;1.90;99.90;;;;;;5045186;28;20084;-78
2022/01/21 00:50:22;;;;;;;18.00;2.92;;;1.90;99.90;;;;;;5038070;28;20076;-78
2022/01/21 00:52:48;;;;;;;16.55;2.17;;;1.80;99.90;;;;;;5044256;28;20037;-81
2022/01/21 00:55:14;;;;;;;14.98;2.58;;;1.80;99.90;;;;;;5037989;28;20053;-79
2022/01/21 00:57:40;;;;;;;22.88;4.32;;;1.70;99.90;;;;;;5038776;28;20052;-79
2022/01/21 01:00:09;;;;;;;17.13;2.10;;;1.60;99.90;;;;;;5045289;28;20237;-78
2022/01/21 01:02:35;;;;;;;14.35;1.90;;;1.60;99.90;;;;;;5043989;28;20433;-78
2022/01/21 01:05:01;;;;;;;17.75;1.90;;;1.60;99.90;;;;;;5031622;28;20104;-77
2022/01/21 01:07:26;;;;;;;17.50;1.80;;;1.70;99.90;;;;;;5022910;28;20474;-78
2022/01/21 01:09:55;;;;;;;12.20;1.83;;;1.70;99.90;;;;;;5039013;28;20034;-78
2022/01/21 01:20:24;;;;;;;15.55;2.00;;;1.40;99.90;;;;;;5054033;28;20069;-80
2022/01/21 01:28:00;;;;;;;13.70;1.70;;;1.20;99.90;;;;;;5051215;28;20076;-78
2022/01/21 01:30:28;;;;;;;18.50;2.67;;;1.20;99.90;;;;;;5048016;28;20061;-78
2022/01/21 01:32:57;;;;;;;13.02;1.83;;;1.20;99.90;;;;;;5047335;28;20064;-78
2022/01/21 01:35:24;;;;;;;15.40;2.10;;;1.20;99.90;;;;;;5076038;28;20430;-77
2022/01/21 01:43:08;;;;;;;16.67;1.98;;;1.40;99.90;;;;;;5049675;28;20487;-77
2022/01/21 01:50:54;;;;;;;10.95;1.42;;;1.60;99.90;;;;;;5029353;28;20057;-85
2022/01/21 01:53:25;;;;;;;12.18;1.08;;;1.60;99.90;;;;;;5042486;28;20057;-78
2022/01/21 01:55:51;;;;;;;6.72;1.42;;;1.80;99.90;;;;;;5046224;28;20053;-78
2022/01/21 01:58:16;;;;;;;6.78;1.20;;;1.90;99.90;;;;;;5045101;28;20124;-78
2022/01/21 02:00:43;;;;;;;9.98;1.85;;;1.90;99.90;;;;;;5061377;28;20497;-77
2022/01/21 02:03:11;;;;;;;8.57;1.30;;;2.10;99.90;;;;;;5048546;28;20148;-81
2022/01/21 02:05:37;;;;;;;9.10;1.50;;;2.10;99.90;;;;;;5032175;28;20037;-78
2022/01/21 02:08:03;;;;;;;11.15;1.20;;;2.10;99.90;;;;;;5045929;28;20147;-78
2022/01/21 02:10:29;;;;;;;11.32;1.40;;;2.00;99.90;;;;;;5046617;28;20128;-78
2022/01/21 02:13:03;;;;;;;9.38;1.33;;;2.00;99.90;;;;;;5034151;28;20125;-80
2022/01/21 02:15:29;;;;;;;8.68;1.25;;;1.90;99.90;;;;;;5045364;28;20506;-79
2022/01/21 02:23:26;;;;;;;7.30;1.23;;;1.90;99.90;;;;;;5072626;28;20551;-78
2022/01/21 02:25:52;;;;;;;12.52;2.45;;;1.90;99.90;;;;;;5018443;28;20072;-78
2022/01/21 02:28:19;;;;;;;7.15;0.90;;;2.00;99.90;;;;;;5076277;28;20252;-78
2022/01/21 02:30:59;;;;;;;8.98;2.40;;;2.10;99.90;;;;;;5047568;28;20053;-78
2022/01/21 02:33:26;;;;;;;12.30;0.95;;;2.20;99.90;;;;;;5049844;28;20551;-78
2022/01/21 02:35:52;;;;;;;11.70;1.48;;;2.20;99.90;;;;;;5052272;28;20045;-78
2022/01/21 02:38:18;;;;;;;8.35;0.80;;;2.20;99.90;;;;;;5045855;28;20088;-78
2022/01/21 02:40:45;;;;;;;6.88;0.80;;;2.30;99.90;;;;;;5047427;28;20128;-78
2022/01/21 02:43:12;;;;;;;4.50;0.80;;;2.20;99.90;;;;;;5045077;28;20041;-78
2022/01/21 02:45:44;;;;;;;8.80;0.85;;;2.20;99.90;;;;;;5084050;28;20044;-79
2022/01/21 02:48:10;;;;;;;7.82;0.95;;;2.20;99.90;;;;;;5048792;28;20048;-78
2022/01/21 02:50:37;;;;;;;5.45;0.45;;;2.10;99.90;;;;;;5063144;28;20372;-79
2022/01/21 02:53:13;;;;;;;7.55;1.27;;;1.90;99.90;;;;;;5046060;28;20041;-85
2022/01/21 02:55:39;;;;;;;6.25;1.02;;;1.80;99.90;;;;;;5030974;28;20514;-78
2022/01/21 02:58:05;;;;;;;6.90;0.60;;;1.70;99.90;;;;;;5042127;28;20130;-80
2022/01/21 03:00:31;;;;;;;4.28;0.50;;;1.60;99.90;;;;;;5074141;28;20053;-78
2022/01/21 03:02:56;;;;;;;9.07;1.02;;;1.60;99.90;;;;;;5032280;28;20132;-79
2022/01/21 03:05:22;;;;;;;7.30;0.98;;;1.60;99.90;;;;;;5046239;28;20053;-77
2022/01/21 03:07:49;;;;;;;2.70;0.50;;;1.50;99.90;;;;;;5056654;28;20148;-78
2022/01/21 03:10:15;;;;;;;6.38;1.35;;;1.60;99.90;;;;;;5046715;28;20044;-77
2022/01/21 03:12:41;;;;;;;8.13;0.85;;;1.70;99.90;;;;;;5050138;28;20049;-78
2022/01/21 03:15:08;;;;;;;5.03;0.98;;;1.70;99.90;;;;;;5083745;28;20037;-80
2022/01/21 03:17:34;;;;;;;8.48;0.73;;;1.70;99.90;;;;;;5044631;28;20143;-81
2022/01/21 03:20:00;;;;;;;13.95;2.33;;;1.70;99.90;;;;;;5059034;28;20045;-78
2022/01/21 03:22:26;;;;;;;11.48;2.20;;;1.80;99.90;;;;;;5063730;28;20485;-78
2022/01/21 03:24:52;;;;;;;9.63;1.48;;;1.90;99.90;;;;;;5049817;28;20041;-79
2022/01/21 03:27:17;;;;;;;8.48;1.30;;;1.90;99.90;;;;;;5046487;28;20049;-78
2022/01/21 03:29:44;;;;;;;8.93;0.90;;;2.00;99.90;;;;;;5045722;28;20088;-77
2022/01/21 03:32:09;;;;;;;5.75;1.17;;;2.10;99.90;;;;;;5046960;28;20041;-78
2022/01/21 03:34:35;;;;;;;11.40;1.27;;;2.10;99.90;;;;;;5042483;28;20037;-78
2022/01/21 03:37:01;;;;;;;10.00;1.63;;;2.10;99.90;;;;;;5050101;28;20128;-77
2022/01/21 03:39:27;;;;;;;11.05;1.13;;;2.10;99.90;;;;;;5049020;28;20037;-77
2022/01/21 03:41:53;;;;;;;15.77;2.03;;;2.00;99.90;;;;;;5047521;28;20248;-78
2022/01/21 03:44:18;;;;;;;5.85;1.00;;;2.00;99.90;;;;;;5041982;28;20049;-82
2022/01/21 03:46:44;;;;;;;10.27;1.10;;;2.00;99.90;;;;;;5045491;28;20037;-79
2022/01/21 03:49:10;;;;;;;10.35;1.02;;;2.10;99.90;;;;;;5046392;28;20464;-82
2022/01/21 03:51:36;;;;;;;8.43;0.90;;;2.10;99.90;;;;;;5047540;28;20045;-79
2022/01/21 03:54:02;;;;;;;6.75;1.20;;;2.10;99.90;;;;;;5041998;28;20136;-78
2022/01/21 03:56:28;;;;;;;7.72;0.68;;;2.00;99.90;;;;;;5034274;28;20064;-78
2022/01/21 03:58:54;;;;;;;7.38;1.00;;;2.00;99.90;;;;;;5047410;28;20507;-80
2022/01/21 04:01:21;;;;;;;9.75;1.10;;;1.90;99.90;;;;;;5055565;28;20418;-78
2022/01/21 04:03:46;;;;;;;6.20;0.82;;;1.90;99.90;;;;;;5037427;28;20486;-78
2022/01/21 04:06:13;;;;;;;14.40;1.38;;;1.90;99.90;;;;;;5032138;28;20049;-80
2022/01/21 04:08:38;;;;;;;7.57;1.40;;;1.90;99.90;;;;;;5047951;28;20072;-81
2022/01/21 04:11:04;;;;;;;9.88;1.48;;;1.80;99.90;;;;;;5083701;28;20055;-78
2022/01/21 04:13:30;;;;;;;9.65;1.33;;;1.70;99.90;;;;;;5046208;28;20552;-78
2022/01/21 04:15:57;;;;;;;12.07;1.17;;;1.60;99.90;;;;;;5048771;28;20060;-78
2022/01/21 04:18:23;;;;;;;7.97;0.90;;;1.50;99.90;;;;;;5047489;28;20041;-78
2022/01/21 04:20:51;;;;;;;6.75;0.95;;;1.40;99.90;;;;;;5064065;28;20504;-80
2022/01/21 04:23:19;;;;;;;6.93;0.60;;;1.50;99.90;;;;;;5048661;28;20080;-78
2022/01/21 04:25:45;;;;;;;8.25;0.75;;;1.50;99.90;;;;;;5045314;28;20099;-78
2022/01/21 04:28:11;;;;;;;4.35;0.90;;;1.60;99.90;;;;;;5030727;28;20072;-77
2022/01/21 04:30:37;;;;;;;6.03;1.00;;;1.50;99.90;;;;;;5045007;28;20049;-78
2022/01/21 04:33:04;;;;;;;10.05;0.90;;;1.40;99.90;;;;;;5045987;28;20464;-77
2022/01/21 04:35:31;;;;;;;5.15;0.70;;;1.30;99.90;;;;;;5071530;28;20486;-78
2022/01/21 04:38:01;;;;;;;10.27;1.35;;;1.30;99.90;;;;;;5031055;28;20057;-78
2022/01/21 04:40:30;;;;;;;9.88;1.10;;;1.30;99.90;;;;;;5044448;28;20128;-78
2022/01/21 04:48:28;;;;;;;10.27;1.08;;;1.50;99.90;;;;;;5042228;28;20412;-76
2022/01/21 04:50:57;;;;;;;11.55;0.88;;;1.50;99.90;;;;;;5080685;28;20056;-82
2022/01/21 04:53:24;;;;;;;11.27;2.25;;;1.60;99.90;;;;;;5060836;28;20068;-78
2022/01/21 04:55:51;;;;;;;12.75;2.63;;;1.50;99.90;;;;;;5049765;28;20057;-78
2022/01/21 04:58:16;;;;;;;7.85;1.00;;;1.40;99.90;;;;;;5048585;28;20052;-85
2022/01/21 05:00:43;;;;;;;11.88;1.30;;;1.40;99.90;;;;;;5069752;28;20040;-78
2022/01/21 05:03:10;;;;;;;16.02;1.10;;;1.40;99.90;;;;;;5027257;28;20434;-78
2022/01/21 05:05:37;;;;;;;10.27;1.63;;;1.30;99.90;;;;;;5035698;28;20402;-77
2022/01/21 05:08:07;;;;;;;14.05;1.75;;;1.20;99.90;;;;;;5041517;28;20406;-77
2022/01/21 05:10:34;;;;;;;12.70;1.55;;;1.20;99.90;;;;;;5044865;28;20390;-77
2022/01/21 05:13:00;;;;;;;13.15;1.25;;;1.10;99.90;;;;;;5048597;28;20410;-77
2022/01/21 05:15:57;;;;;;;11.90;1.50;;;1.10;99.90;;;;;;5051050;28;20048;-77
2022/01/21 05:18:20;;;;;;;11.15;1.60;;;1.10;99.90;;;;;;5072801;28;20041;-83
2022/01/21 05:20:46;;;;;;;11.63;1.63;;;1.10;99.90;;;;;;5073965;28;20048;-77
2022/01/21 05:23:11;;;;;;;10.73;1.30;;;1.00;99.90;;;;;;5049626;28;20494;-82
2022/01/21 05:25:37;;;;;;;19.98;2.03;;;1.00;99.90;;;;;;5050076;28;20621;-79
2022/01/21 05:28:03;;;;;;;16.63;3.13;;;1.00;99.90;;;;;;5042297;28;20320;-77
2022/01/21 05:30:29;;;;;;;12.13;1.75;;;1.10;99.90;;;;;;5051675;28;20048;-79
2022/01/21 05:32:54;;;;;;;11.45;1.50;;;1.10;99.90;;;;;;5054738;28;20059;-78
2022/01/21 05:35:20;;;;;;;11.30;1.35;;;1.10;99.90;;;;;;5048166;28;20041;-82
2022/01/21 05:37:46;;;;;;;13.10;1.98;;;1.10;99.90;;;;;;5034391;28;20045;-77
2022/01/21 05:40:14;;;;;;;11.10;1.50;;;1.10;99.90;;;;;;5047161;28;20482;-77
2022/01/21 05:42:40;;;;;;;9.13;1.30;;;1.20;99.90;;;;;;5048015;28;20038;-77
2022/01/21 05:47:35;;;;;;;10.20;1.38;;;1.40;99.90;;;;;;5051300;28;20048;-77
2022/01/21 05:50:01;;;;;;;12.90;1.30;;;1.40;99.90;;;;;;5051867;28;20483;-78
2022/01/21 05:52:37;;;;;;;8.10;1.70;;;1.40;99.90;;;;;;5049149;28;20471;-77
2022/01/21 05:55:03;;;;;;;11.77;2.53;;;1.40;99.90;;;;;;5057656;28;20056;-77
2022/01/21 05:57:30;;;;;;;10.85;1.77;;;1.50;99.90;;;;;;5050322;28;20525;-79
2022/01/21 05:59:56;;;;;;;13.82;2.25;;;1.50;99.90;;;;;;5049154;28;20045;-77
2022/01/21 06:02:22;;;;;;;12.20;1.75;;;1.60;99.90;;;;;;5047501;28;20482;-77
2022/01/21 06:04:50;;;;;;;13.13;2.50;;;1.60;99.90;;;;;;5049864;28;20044;-77
2022/01/21 06:07:17;;;;;;;10.43;1.45;;;1.60;99.90;;;;;;5050251;28;20127;-81
2022/01/21 06:09:43;;;;;;;11.25;1.90;;;1.70;99.90;;;;;;5047169;28;20107;-77
2022/01/21 06:12:10;;;;;;;16.20;2.85;;;1.70;99.90;;;;;;5056887;28;20045;-78
2022/01/21 06:14:37;;;;;;;8.18;1.60;;;1.70;99.90;;;;;;5080109;28;20049;-78
2022/01/21 06:17:03;;;;;;;15.98;1.52;;;1.70;99.90;;;;;;5045015;28;20498;-77
2022/01/21 06:19:29;;;;;;;9.55;1.73;;;1.70;99.90;;;;;;5049513;28;20568;-79
2022/01/21 06:21:54;;;;;;;12.98;2.03;;;1.60;99.90;;;;;;5049539;28;20047;-77
2022/01/21 06:24:20;;;;;;;9.75;1.92;;;1.70;99.90;;;;;;5028266;28;20045;-77
2022/01/21 06:26:46;;;;;;;10.30;1.50;;;1.70;99.90;;;;;;5069602;28;20103;-77
2022/01/21 06:29:12;;;;;;;13.25;1.13;;;1.90;99.90;;;;;;5041251;28;20059;-77
2022/01/21 06:31:38;;;;;;;14.75;2.83;;;2.00;99.90;;;;;;5068553;28;20049;-78
2022/01/21 06:34:03;;;;;;;16.23;2.17;;;2.10;99.90;;;;;;5031541;28;20136;-79
2022/01/21 06:36:29;;;;;;;15.40;1.70;;;2.10;99.90;;;;;;5042284;28;20048;-83
2022/01/21 06:38:55;;;;;;;20.65;2.60;;;2.10;99.90;;;;;;5049046;28;20075;-78
2022/01/21 06:41:21;;;;;;;8.90;1.52;;;2.10;99.90;;;;;;5033243;28;20501;-77
2022/01/21 06:43:47;;;;;;;8.65;1.63;;;2.00;99.90;;;;;;5035892;28;20402;-77
2022/01/21 06:46:13;;;;;;;11.90;1.92;;;2.00;99.90;;;;;;5084369;28;20070;-81
2022/01/21 06:48:39;;;;;;;13.82;1.55;;;1.90;99.90;;;;;;5051418;28;20060;-78
2022/01/21 06:51:04;;;;;;;9.90;1.80;;;1.90;99.90;;;;;;5052008;28;20048;-77
2022/01/21 06:53:30;;;;;;;12.35;2.05;;;1.90;99.90;;;;;;5032185;28;20044;-85
2022/01/21 06:55:56;;;;;;;16.17;2.63;;;1.90;99.90;;;;;;5050651;28;20057;-77
2022/01/21 06:58:22;;;;;;;9.70;1.58;;;1.80;99.90;;;;;;5030830;28;20122;-76
2022/01/21 07:00:47;;;;;;;15.65;1.40;;;1.80;99.90;;;;;;5063926;28;20049;-79
2022/01/21 07:03:13;;;;;;;10.95;1.38;;;1.80;99.90;;;;;;5022411;28;20171;-78
2022/01/21 07:05:39;;;;;;;7.50;1.48;;;1.70;99.90;;;;;;5048406;28;20049;-78
2022/01/21 07:08:05;;;;;;;8.02;1.65;;;1.70;99.90;;;;;;5033408;28;20124;-77
2022/01/21 07:10:30;;;;;;;14.65;1.98;;;1.70;99.90;;;;;;5071787;28;20499;-78
2022/01/21 07:12:57;;;;;;;20.38;2.00;;;1.70;99.90;;;;;;5043462;28;20053;-78
2022/01/21 07:15:23;;;;;;;8.23;1.70;;;1.70;99.90;;;;;;5061142;28;20471;-77
2022/01/21 07:17:52;;;;;;;12.38;1.73;;;1.60;99.90;;;;;;5047897;28;20052;-78
2022/01/21 07:20:18;;;;;;;14.15;1.90;;;1.60;99.90;;;;;;5038015;28;20041;-79
2022/01/21 07:22:44;;;;;;;11.65;2.03;;;1.60;99.90;;;;;;5033483;28;20050;-77
2022/01/21 07:25:10;;;;;;;11.68;1.75;;;1.70;99.90;;;;;;5036406;28;20041;-78
2022/01/21 07:27:36;;;;;;;10.50;1.70;;;1.60;99.90;;;;;;5048828;28;20040;-85
2022/01/21 07:30:04;;;;;;;11.65;1.58;;;1.60;99.90;;;;;;5049579;28;20037;-77
2022/01/21 07:32:29;;;;;;;12.73;1.63;;;1.60;99.90;;;;;;5063995;28;20045;-77
2022/01/21 07:34:55;;;;;;;9.00;1.75;;;1.60;99.90;;;;;;5042687;28;20536;-76
2022/01/21 07:37:21;;;;;;;13.85;2.20;;;1.60;99.90;;;;;;5038459;28;20127;-75
2022/01/21 07:39:47;;;;;;;16.67;1.98;;;1.70;99.90;;;;;;5046943;28;20053;-78
2022/01/21 07:42:13;;;;;;;21.88;1.80;;;1.70;99.90;;;;;;5047792;28;20056;-75
2022/01/21 07:44:39;;;;;;;25.83;1.98;;;1.70;99.90;;;;;;5048986;28;20051;-84
2022/01/21 07:47:05;;;;;;;12.60;2.40;;;1.70;99.90;;;;;;5050012;28;20116;-76
2022/01/21 07:49:31;;;;;;;12.30;1.75;;;1.70;99.90;;;;;;5035161;28;20577;-76
2022/01/21 07:51:57;;;;;;;11.65;1.83;;;1.70;99.90;;;;;;5016030;28;20278;-75
2022/01/21 07:54:23;;;;;;;20.27;2.10;;;1.70;99.90;;;;;;5065506;28;20102;-75
2022/01/21 07:56:48;;;;;;;14.82;1.77;;;1.70;99.90;;;;;;5062832;28;20053;-77
2022/01/21 07:59:15;;;;;;;11.32;1.50;;;1.70;99.90;;;;;;5048202;28;20084;-76
2022/01/21 08:01:42;;;;;;;14.25;2.70;;;1.70;99.90;;;;;;5022453;28;20135;-85
2022/01/21 08:04:09;;;;;;;11.50;1.55;;;1.80;99.90;;;;;;5045873;28;20045;-80
2022/01/21 08:06:35;;;;;;;15.07;2.22;;;1.90;99.90;;;;;;5049655;28;20043;-76
2022/01/21 08:09:03;;;;;;;12.48;1.67;;;2.00;99.90;;;;;;5049458;28;20080;-75
2022/01/21 08:11:29;;;;;;;20.27;2.25;;;2.00;99.90;;;;;;5047457;28;20076;-77
2022/01/21 08:13:54;;;;;;;12.30;1.60;;;2.10;99.90;;;;;;5048471;28;20075;-75
2022/01/21 08:16:20;;;;;;;12.80;1.98;;;2.20;99.90;;;;;;5049248;28;20098;-80
2022/01/21 08:18:46;;;;;;;21.40;2.60;;;2.10;99.90;;;;;;5046698;28;20088;-75
2022/01/21 08:21:18;;;;;;;17.10;2.40;;;2.10;99.90;;;;;;5032083;28;20068;-75
2022/01/21 08:23:53;;;;;;;10.07;2.03;;;2.00;99.90;;;;;;5030339;28;20064;-77
2022/01/21 08:26:21;;;;;;;15.50;1.77;;;2.10;99.90;;;;;;5047898;28;20040;-76
2022/01/21 08:28:48;;;;;;;12.30;1.83;;;2.10;99.90;;;;;;5044495;28;20061;-75
2022/01/21 08:31:13;;;;;;;12.95;1.80;;;2.10;99.90;;;;;;5048042;28;20059;-76
2022/01/21 08:33:39;;;;;;;10.77;1.73;;;2.00;99.90;;;;;;5049243;28;20124;-76
2022/01/21 08:36:07;;;;;;;15.57;3.08;;;2.00;99.90;;;;;;5040800;28;20128;-75
2022/01/21 08:38:34;;;;;;;18.15;1.98;;;1.90;99.90;;;;;;5039526;28;20501;-76
2022/01/21 08:40:59;;;;;;;14.02;2.38;;;1.90;99.90;;;;;;5048427;28;20449;-77
2022/01/21 08:43:25;;;;;;;14.25;1.90;;;1.90;99.90;;;;;;5048790;28;20106;-75
2022/01/21 08:45:52;;;;;;;18.55;2.88;;;1.90;99.90;;;;;;5049051;28;20446;-76
2022/01/21 08:48:17;;;;;;;10.77;1.70;;;1.90;99.90;;;;;;5049622;28;20407;-75
2022/01/21 08:50:43;;;;;;;8.57;1.52;;;1.90;99.90;;;;;;5049830;28;20080;-76
2022/01/21 08:53:36;;;;;;;9.40;1.75;;;2.00;99.90;;;;;;5049370;28;20048;-77
2022/01/21 08:55:55;;;;;;;12.13;1.83;;;2.00;99.90;;;;;;5049857;28;20041;-76
2022/01/21 08:58:21;;;;;;;17.52;1.92;;;2.10;99.90;;;;;;5045187;28;20049;-76
2022/01/21 09:00:47;;;;;;;12.98;1.98;;;2.30;99.90;;;;;;5050056;28;20041;-84
2022/01/21 09:03:13;;;;;;;15.43;2.75;;;2.40;99.90;;;;;;5048538;28;20548;-76
2022/01/21 09:05:38;;;;;;;9.40;1.90;;;2.60;99.90;;;;;;5048847;28;20049;-78
2022/01/21 09:08:04;;;;;;;15.68;2.40;;;2.70;99.90;;;;;;5047129;28;20049;-76
2022/01/21 09:10:30;;;;;;;10.50;1.67;;;2.90;99.90;;;;;;5046305;28;20048;-76
2022/01/21 09:12:56;;;;;;;10.45;2.00;;;3.00;99.90;;;;;;5048092;28;20106;-76
2022/01/21 09:15:25;;;;;;;9.25;2.08;;;3.00;99.90;;;;;;5048467;28;20519;-75
2022/01/21 09:17:52;;;;;;;12.10;2.38;;;3.10;99.90;;;;;;5042185;28;20050;-76
2022/01/21 09:20:18;;;;;;;16.23;2.00;;;3.20;99.90;;;;;;5041592;28;20060;-75
2022/01/21 09:22:44;;;;;;;14.63;2.10;;;3.20;99.90;;;;;;5028411;28;20061;-78
2022/01/21 09:25:09;;;;;;;18.33;3.30;;;3.20;99.90;;;;;;5028790;28;20046;-78
2022/01/21 09:27:36;;;;;;;14.07;2.15;;;3.30;99.90;;;;;;5032890;28;20048;-76
2022/01/21 09:30:05;;;;;;;11.27;2.00;;;3.30;99.90;;;;;;5046223;28;20055;-79
2022/01/21 09:32:32;;;;;;;16.08;2.03;;;3.30;99.90;;;;;;5031959;28;20057;-75
2022/01/21 09:34:59;;;;;;;15.18;2.35;;;3.30;99.90;;;;;;5057533;28;20521;-75
2022/01/21 09:37:24;;;;;;;16.58;2.40;;;3.40;99.90;;;;;;5052210;28;20084;-75
2022/01/21 09:39:50;;;;;;;13.93;2.15;;;3.40;99.90;;;;;;5041851;28;20096;-83
2022/01/21 09:42:16;;;;;;;16.65;2.50;;;3.50;99.90;;;;;;5070681;28;20080;-76
2022/01/21 09:44:45;;;;;;;17.13;3.20;;;3.50;99.90;;;;;;5028681;28;20550;-76
2022/01/21 09:47:14;;;;;;;17.27;3.30;;;3.50;99.90;;;;;;5071065;28;20737;-77
2022/01/21 09:49:42;;;;;;;15.23;2.55;;;3.60;99.90;;;;;;5044488;28;20053;-76
2022/01/21 09:52:11;;;;;;;12.15;2.83;;;3.70;99.90;;;;;;5047882;28;20048;-77
2022/01/21 09:54:48;;;;;;;27.38;4.78;;;3.80;99.90;;;;;;5043110;28;20092;-77
2022/01/21 09:57:24;;;;;;;19.10;3.42;;;4.00;99.90;;;;;;5050133;28;20087;-79
2022/01/21 09:59:52;;;;;;;18.95;2.92;;;4.00;99.90;;;;;;5046094;28;20056;-79
2022/01/21 10:02:21;;;;;;;21.13;3.60;;;4.00;99.90;;;;;;5049163;28;20044;-78
2022/01/21 10:04:49;;;;;;;17.50;3.75;;;4.00;99.90;;;;;;5050956;28;20045;-76
2022/01/21 10:07:17;;;;;;;16.17;5.05;;;4.00;99.90;;;;;;5035394;28;20068;-76
2022/01/21 10:09:44;;;;;;;16.35;3.80;;;4.20;99.90;;;;;;5049391;28;20041;-78
2022/01/21 10:12:11;;;;;;;15.65;2.88;;;4.40;99.90;;;;;;5051244;28;20056;-76
2022/01/21 10:14:38;;;;;;;14.80;2.92;;;4.50;99.90;;;;;;5050176;28;20569;-75
2022/01/21 10:17:05;;;;;;;15.75;2.50;;;4.50;99.90;;;;;;5050673;28;20132;-76
2022/01/21 10:19:35;;;;;;;14.35;1.90;;;4.50;99.90;;;;;;5050575;28;20427;-75
2022/01/21 10:22:06;;;;;;;9.18;2.08;;;4.50;99.90;;;;;;5048961;28;20053;-79
2022/01/21 10:24:34;;;;;;;13.20;3.40;;;4.40;99.90;;;;;;5050508;28;20470;-76
2022/01/21 10:27:00;;;;;;;18.17;3.13;;;4.40;99.90;;;;;;5050373;28;20080;-75
2022/01/21 10:29:42;;;;;;;13.32;2.55;;;4.40;99.90;;;;;;5052002;28;20071;-73
2022/01/21 10:32:08;;;;;;;19.77;3.08;;;4.40;99.90;;;;;;5050882;28;20418;-78
2022/01/21 10:34:40;;;;;;;16.98;3.30;;;4.40;99.90;;;;;;5051764;28;20383;-75
2022/01/21 10:37:24;;;;;;;22.27;2.70;;;4.40;99.90;;;;;;5050472;28;20061;-74
2022/01/21 10:39:58;;;;;;;17.02;2.38;;;4.40;99.90;;;;;;5050158;28;20491;-73
2022/01/21 10:42:25;;;;;;;9.50;1.77;;;4.40;99.90;;;;;;5051894;28;20142;-72
2022/01/21 10:44:51;;;;;;;14.10;2.00;;;4.50;99.90;;;;;;5045688;28;20049;-72
2022/01/21 10:47:18;;;;;;;16.48;1.95;;;4.50;99.90;;;;;;5051977;28;20437;-73
2022/01/21 10:49:57;;;;;;;13.90;2.50;;;4.60;99.90;;;;;;5052767;28;20056;-73
2022/01/21 10:52:31;;;;;;;12.15;2.22;;;4.60;99.90;;;;;;5050162;28;20049;-78
2022/01/21 10:54:57;;;;;;;12.40;2.10;;;4.70;99.90;;;;;;5049683;28;20065;-77
2022/01/21 10:57:23;;;;;;;10.20;1.70;;;4.70;99.90;;;;;;5049740;28;20493;-78
2022/01/21 10:59:57;;;;;;;11.15;2.10;;;4.80;99.90;;;;;;5048007;28;20044;-81
2022/01/21 11:02:31;;;;;;;15.35;2.00;;;4.80;99.90;;;;;;5049596;28;20076;-74
2022/01/21 11:04:59;;;;;;;15.95;2.50;;;5.00;99.90;;;;;;5050714;28;20060;-74
2022/01/21 11:07:44;;;;;;;14.98;2.75;;;5.00;99.90;;;;;;5048874;28;20041;-74
2022/01/21 11:10:35;;;;;;;16.65;2.88;;;5.00;99.90;;;;;;5049626;28;20048;-77
2022/01/21 11:13:02;;;;;;;22.10;2.88;;;5.10;99.90;;;;;;5033161;28;20118;-83
2022/01/21 11:15:48;;;;;;;19.48;3.63;;;5.10;99.90;;;;;;5050628;28;20074;-74
2022/01/21 11:18:18;;;;;;;22.83;3.25;;;5.20;99.90;;;;;;5048353;28;20136;-77
2022/01/21 11:20:48;;;;;;;21.98;3.65;;;5.30;99.90;;;;;;5048112;28;20127;-77
2022/01/21 11:23:14;;;;;;;18.55;2.42;;;5.30;99.90;;;;;;5049226;28;20876;-79
2022/01/21 11:25:54;;;;;;;17.65;2.65;;;5.40;99.90;;;;;;5050707;28;20076;-77
2022/01/21 11:28:22;;;;;;;20.15;4.07;;;5.50;99.90;;;;;;5050014;28;20125;-79
2022/01/21 11:30:49;;;;;;;17.35;3.60;;;5.60;99.90;;;;;;5044592;28;20052;-77
2022/01/21 11:33:15;;;;;;;23.85;5.15;;;5.60;99.90;;;;;;5040614;28;20072;-76
2022/01/21 11:35:41;;;;;;;20.23;6.72;;;5.60;99.90;;;;;;5061287;28;20419;-75
2022/01/21 11:38:09;;;;;;;23.17;6.70;;;5.60;99.90;;;;;;5035153;28;20049;-77
2022/01/21 11:40:36;;;;;;;26.65;5.95;;;5.70;99.90;;;;;;5063206;28;20071;-75
2022/01/21 11:43:04;;;;;;;32.47;6.85;;;5.80;99.90;;;;;;5048528;28;20052;-83
2022/01/21 11:45:43;;;;;;;22.58;5.00;;;5.90;99.90;;;;;;5043827;28;20505;-77
2022/01/21 11:50:48;;;;;;;20.90;5.70;;;6.20;99.90;;;;;;5037293;28;20505;-78
2022/01/21 11:53:15;;;;;;;22.50;4.40;;;6.30;99.90;;;;;;5039357;28;20521;-79
2022/01/21 11:55:47;;;;;;;26.08;6.72;;;6.30;99.90;;;;;;5038394;28;20048;-79
2022/01/21 11:58:20;;;;;;;26.55;10.85;;;6.40;99.90;;;;;;5037869;28;20041;-79
2022/01/21 12:00:48;;;;;;;14.02;4.65;;;6.60;99.90;;;;;;5037653;28;20045;-78
2022/01/21 12:03:24;;;;;;;17.90;4.93;;;6.70;99.90;;;;;;5038080;28;20045;-77
2022/01/21 12:05:50;;;;;;;19.95;3.55;;;6.70;99.90;;;;;;5045423;28;20542;-80
2022/01/21 12:08:46;;;;;;;21.75;3.58;;;6.60;99.90;;;;;;5037856;28;20379;-77
2022/01/21 12:11:31;;;;;;;14.27;2.90;;;6.50;99.90;;;;;;5038889;28;20111;-79
2022/01/21 12:13:58;;;;;;;19.10;2.70;;;6.60;99.90;;;;;;5076846;28;20053;-76
2022/01/21 12:16:57;;;;;;;18.35;2.53;;;6.50;99.90;;;;;;5048768;28;20067;-77
2022/01/21 12:19:35;;;;;;;20.92;3.20;;;6.50;99.90;;;;;;5047141;28;20053;-76
2022/01/21 12:22:16;;;;;;;21.35;3.90;;;6.50;99.90;;;;;;5047228;28;20057;-76
2022/01/21 12:24:48;;;;;;;9.00;2.13;;;6.40;99.90;;;;;;5059574;28;20517;-76
2022/01/21 12:27:15;;;;;;;12.98;2.45;;;6.50;99.90;;;;;;5062178;28;20056;-77
2022/01/21 12:29:41;;;;;;;19.05;2.78;;;6.40;99.90;;;;;;5047228;28;20045;-76
2022/01/21 12:32:16;;;;;;;14.75;2.53;;;6.30;99.90;;;;;;5057174;28;20052;-77
2022/01/21 12:34:58;;;;;;;18.95;3.58;;;6.40;99.90;;;;;;5058594;28;20056;-77
2022/01/21 12:37:34;;;;;;;13.88;2.13;;;6.40;99.90;;;;;;5046070;28;20071;-78
2022/01/21 12:40:00;;;;;;;14.23;1.95;;;6.30;99.90;;;;;;5045579;28;20055;-77
2022/01/21 12:42:35;;;;;;;12.50;1.70;;;6.40;99.90;;;;;;5044694;28;20041;-76
2022/01/21 12:45:06;;;;;;;9.68;2.20;;;6.40;99.90;;;;;;5040978;28;20056;-76
2022/01/21 12:47:39;;;;;;;13.02;1.92;;;6.40;99.90;;;;;;5048634;28;20096;-77
2022/01/21 12:50:16;;;;;;;14.65;2.53;;;6.40;99.90;;;;;;5048064;28;20123;-77
2022/01/21 12:53:44;;;;;;;13.85;3.47;;;6.60;99.90;;;;;;5048766;28;20084;-77
2022/01/21 12:58:19;;;;;;;15.02;2.60;;;6.60;99.90;;;;;;5046037;28;20112;-77
2022/01/21 13:00:45;;;;;;;12.10;2.00;;;6.60;99.90;;;;;;5047823;28;20091;-76
2022/01/21 13:03:31;;;;;;;12.77;2.30;;;6.60;99.90;;;;;;5039916;28;20053;-76
2022/01/21 13:06:15;;;;;;;13.98;2.10;;;6.60;99.90;;;;;;5047622;28;20072;-76
2022/01/21 13:09:01;;;;;;;18.40;3.60;;;6.50;99.90;;;;;;5083683;28;20049;-79
2022/01/21 13:11:28;;;;;;;14.57;2.38;;;6.60;99.90;;;;;;5053192;28;20119;-76
2022/01/21 13:17:04;;;;;;;16.50;2.63;;;6.50;99.90;;;;;;5052636;28;20132;-86
2022/01/21 13:19:51;;;;;;;18.17;3.63;;;6.50;99.90;;;;;;5073936;28;20045;-76
2022/01/21 13:22:23;;;;;;;11.95;1.88;;;6.40;99.90;;;;;;5049011;28;20461;-77
2022/01/21 13:24:58;;;;;;;13.05;2.20;;;6.40;99.90;;;;;;5033757;28;20057;-79
2022/01/21 13:27:26;;;;;;;14.05;2.33;;;6.30;99.90;;;;;;5065456;28;20107;-78
2022/01/21 13:29:58;;;;;;;16.95;3.20;;;6.40;99.90;;;;;;5052840;28;20048;-77
2022/01/21 13:32:24;;;;;;;14.57;2.13;;;6.40;99.90;;;;;;5052054;28;20483;-78
2022/01/21 13:34:49;;;;;;;15.27;2.55;;;6.50;99.90;;;;;;5058111;28;20072;-79
2022/01/21 13:37:18;;;;;;;12.30;2.65;;;6.40;99.90;;;;;;5052871;28;20087;-77
2022/01/21 13:39:46;;;;;;;20.75;4.70;;;6.40;99.90;;;;;;5052372;28;20053;-77
2022/01/21 13:42:15;;;;;;;16.00;2.75;;;6.50;99.90;;;;;;5052271;28;20544;-76
2022/01/21 13:44:48;;;;;;;12.77;2.35;;;6.50;99.90;;;;;;5050338;28;20076;-77
2022/01/21 13:47:36;;;;;;;14.48;3.50;;;6.50;99.90;;;;;;5077592;28;20045;-76
2022/01/21 13:50:17;;;;;;;14.68;2.70;;;6.40;99.90;;;;;;5044087;28;20056;-76
2022/01/21 13:52:46;;;;;;;19.08;2.92;;;6.40;99.90;;;;;;5044320;28;20041;-76